sensor_id;sensor_type;location;lat;lon;timestamp;P1;durP1;ratioP1;P2;durP2;ratioP2
38397;SDS011;24179;52.094;4.408;2022-08-01T00:00:56;12.57;;;6.70;;
38397;SDS011;24179;52.094;4.408;2022-08-01T00:03:57;11.37;;;6.60;;
38397;SDS011;24179;52.094;4.408;2022-08-01T00:06:58;11.50;;;6.97;;
38397;SDS011;24179;52.094;4.408;2022-08-01T00:09:58;11.50;;;5.53;;
38397;SDS011;24179;52.094;4.408;2022-08-01T00:12:59;11.80;;;6.70;;
38397;SDS011;24179;52.094;4.408;2022-08-01T00:15:59;12.47;;;5.87;;
38397;SDS011;24179;52.094;4.408;2022-08-01T00:19:00;13.60;;;5.67;;
38397;SDS011;24179;52.094;4.408;2022-08-01T00:22:01;9.03;;;3.60;;
38397;SDS011;24179;52.094;4.408;2022-08-01T00:25:02;6.53;;;3.23;;
38397;SDS011;24179;52.094;4.408;2022-08-01T00:28:04;6.38;;;3.17;;
38397;SDS011;24179;52.094;4.408;2022-08-01T00:31:08;4.22;;;2.42;;
38397;SDS011;24179;52.094;4.408;2022-08-01T00:34:10;5.40;;;3.23;;
38397;SDS011;24179;52.094;4.408;2022-08-01T00:40:11;6.07;;;3.20;;
38397;SDS011;24179;52.094;4.408;2022-08-01T00:43:11;5.70;;;3.00;;
38397;SDS011;24179;52.094;4.408;2022-08-01T00:46:12;13.13;;;6.20;;
38397;SDS011;24179;52.094;4.408;2022-08-01T00:49:13;10.47;;;4.50;;
38397;SDS011;24179;52.094;4.408;2022-08-01T00:52:13;6.67;;;3.83;;
38397;SDS011;24179;52.094;4.408;2022-08-01T00:55:14;10.43;;;4.60;;
38397;SDS011;24179;52.094;4.408;2022-08-01T00:58:16;8.50;;;4.50;;
38397;SDS011;24179;52.094;4.408;2022-08-01T01:01:17;7.00;;;4.43;;
38397;SDS011;24179;52.094;4.408;2022-08-01T01:04:20;8.07;;;3.70;;
38397;SDS011;24179;52.094;4.408;2022-08-01T01:07:27;7.37;;;3.60;;
38397;SDS011;24179;52.094;4.408;2022-08-01T01:13:52;5.53;;;3.40;;
38397;SDS011;24179;52.094;4.408;2022-08-01T01:17:00;7.00;;;3.33;;
38397;SDS011;24179;52.094;4.408;2022-08-01T01:20:03;7.50;;;3.60;;
38397;SDS011;24179;52.094;4.408;2022-08-01T01:23:10;6.85;;;3.33;;
38397;SDS011;24179;52.094;4.408;2022-08-01T01:29:51;7.70;;;4.05;;
38397;SDS011;24179;52.094;4.408;2022-08-01T01:32:54;7.68;;;4.80;;
38397;SDS011;24179;52.094;4.408;2022-08-01T01:35:58;6.68;;;4.57;;
38397;SDS011;24179;52.094;4.408;2022-08-01T01:39:02;7.43;;;4.75;;
38397;SDS011;24179;52.094;4.408;2022-08-01T01:42:04;11.18;;;5.15;;
38397;SDS011;24179;52.094;4.408;2022-08-01T01:45:06;8.55;;;5.22;;
38397;SDS011;24179;52.094;4.408;2022-08-01T01:51:10;11.32;;;6.07;;
38397;SDS011;24179;52.094;4.408;2022-08-01T01:54:12;13.63;;;6.68;;
38397;SDS011;24179;52.094;4.408;2022-08-01T01:57:14;8.57;;;6.23;;
38397;SDS011;24179;52.094;4.408;2022-08-01T02:00:16;10.38;;;7.00;;
38397;SDS011;24179;52.094;4.408;2022-08-01T02:03:17;9.57;;;6.47;;
38397;SDS011;24179;52.094;4.408;2022-08-01T02:06:20;13.65;;;6.80;;
38397;SDS011;24179;52.094;4.408;2022-08-01T02:09:23;13.10;;;6.88;;
38397;SDS011;24179;52.094;4.408;2022-08-01T02:12:26;10.93;;;6.30;;
38397;SDS011;24179;52.094;4.408;2022-08-01T02:15:31;11.93;;;6.50;;
38397;SDS011;24179;52.094;4.408;2022-08-01T02:18:38;10.35;;;4.50;;
38397;SDS011;24179;52.094;4.408;2022-08-01T02:21:40;10.53;;;5.07;;
38397;SDS011;24179;52.094;4.408;2022-08-01T02:24:49;7.78;;;4.70;;
38397;SDS011;24179;52.094;4.408;2022-08-01T02:31:09;5.78;;;3.92;;
38397;SDS011;24179;52.094;4.408;2022-08-01T02:34:17;7.68;;;4.65;;
38397;SDS011;24179;52.094;4.408;2022-08-01T02:37:19;5.80;;;4.65;;
38397;SDS011;24179;52.094;4.408;2022-08-01T02:40:21;14.05;;;4.70;;
38397;SDS011;24179;52.094;4.408;2022-08-01T02:43:23;9.80;;;4.63;;
38397;SDS011;24179;52.094;4.408;2022-08-01T02:46:31;8.32;;;4.57;;
38397;SDS011;24179;52.094;4.408;2022-08-01T02:49:37;6.05;;;4.15;;
38397;SDS011;24179;52.094;4.408;2022-08-01T02:52:43;7.28;;;4.07;;
38397;SDS011;24179;52.094;4.408;2022-08-01T02:55:48;9.90;;;4.20;;
38397;SDS011;24179;52.094;4.408;2022-08-01T02:58:50;7.43;;;3.63;;
38397;SDS011;24179;52.094;4.408;2022-08-01T03:01:53;7.07;;;3.45;;
38397;SDS011;24179;52.094;4.408;2022-08-01T03:04:56;7.68;;;3.50;;
38397;SDS011;24179;52.094;4.408;2022-08-01T03:08:00;6.88;;;3.80;;
38397;SDS011;24179;52.094;4.408;2022-08-01T03:11:02;7.28;;;3.55;;
38397;SDS011;24179;52.094;4.408;2022-08-01T03:14:05;9.95;;;3.90;;
38397;SDS011;24179;52.094;4.408;2022-08-01T03:17:07;5.80;;;3.35;;
38397;SDS011;24179;52.094;4.408;2022-08-01T03:20:10;9.20;;;3.83;;
38397;SDS011;24179;52.094;4.408;2022-08-01T03:23:14;9.25;;;3.40;;
38397;SDS011;24179;52.094;4.408;2022-08-01T03:29:18;6.22;;;3.38;;
38397;SDS011;24179;52.094;4.408;2022-08-01T03:32:23;4.60;;;2.95;;
38397;SDS011;24179;52.094;4.408;2022-08-01T03:35:29;8.30;;;3.95;;
38397;SDS011;24179;52.094;4.408;2022-08-01T03:38:33;5.20;;;3.28;;
38397;SDS011;24179;52.094;4.408;2022-08-01T03:41:39;5.65;;;3.28;;
38397;SDS011;24179;52.094;4.408;2022-08-01T03:44:45;7.78;;;3.88;;
38397;SDS011;24179;52.094;4.408;2022-08-01T03:47:56;7.10;;;4.18;;
38397;SDS011;24179;52.094;4.408;2022-08-01T03:51:00;7.65;;;3.67;;
38397;SDS011;24179;52.094;4.408;2022-08-01T03:54:02;7.43;;;4.22;;
38397;SDS011;24179;52.094;4.408;2022-08-01T03:57:05;6.18;;;4.20;;
38397;SDS011;24179;52.094;4.408;2022-08-01T04:00:06;6.97;;;4.15;;
38397;SDS011;24179;52.094;4.408;2022-08-01T04:03:09;7.40;;;4.65;;
38397;SDS011;24179;52.094;4.408;2022-08-01T04:06:10;8.23;;;4.60;;
38397;SDS011;24179;52.094;4.408;2022-08-01T04:09:13;6.63;;;4.10;;
38397;SDS011;24179;52.094;4.408;2022-08-01T04:12:20;7.07;;;4.18;;
38397;SDS011;24179;52.094;4.408;2022-08-01T04:15:24;7.53;;;3.72;;
38397;SDS011;24179;52.094;4.408;2022-08-01T04:18:24;6.20;;;3.80;;
38397;SDS011;24179;52.094;4.408;2022-08-01T04:21:25;7.60;;;3.50;;
38397;SDS011;24179;52.094;4.408;2022-08-01T04:24:27;6.32;;;3.28;;
38397;SDS011;24179;52.094;4.408;2022-08-01T04:27:31;7.65;;;3.72;;
38397;SDS011;24179;52.094;4.408;2022-08-01T04:30:35;6.30;;;3.90;;
38397;SDS011;24179;52.094;4.408;2022-08-01T04:33:40;7.13;;;3.38;;
38397;SDS011;24179;52.094;4.408;2022-08-01T04:36:47;5.95;;;3.35;;
38397;SDS011;24179;52.094;4.408;2022-08-01T04:39:50;13.70;;;3.72;;
38397;SDS011;24179;52.094;4.408;2022-08-01T04:42:52;8.13;;;3.90;;
38397;SDS011;24179;52.094;4.408;2022-08-01T04:45:53;7.75;;;3.75;;
38397;SDS011;24179;52.094;4.408;2022-08-01T04:48:55;6.60;;;4.10;;
38397;SDS011;24179;52.094;4.408;2022-08-01T04:51:56;5.57;;;3.72;;
38397;SDS011;24179;52.094;4.408;2022-08-01T04:54:57;8.75;;;3.50;;
38397;SDS011;24179;52.094;4.408;2022-08-01T04:57:58;14.53;;;5.63;;
38397;SDS011;24179;52.094;4.408;2022-08-01T05:00:58;6.20;;;3.30;;
38397;SDS011;24179;52.094;4.408;2022-08-01T05:03:59;4.17;;;3.17;;
38397;SDS011;24179;52.094;4.408;2022-08-01T05:07:01;5.47;;;3.83;;
38397;SDS011;24179;52.094;4.408;2022-08-01T05:10:02;6.15;;;3.53;;
38397;SDS011;24179;52.094;4.408;2022-08-01T05:13:04;8.55;;;4.22;;
38397;SDS011;24179;52.094;4.408;2022-08-01T05:16:06;7.72;;;4.32;;
38397;SDS011;24179;52.094;4.408;2022-08-01T05:19:07;10.57;;;4.10;;
38397;SDS011;24179;52.094;4.408;2022-08-01T05:22:08;8.68;;;3.97;;
38397;SDS011;24179;52.094;4.408;2022-08-01T05:25:09;8.63;;;4.20;;
38397;SDS011;24179;52.094;4.408;2022-08-01T05:28:10;8.77;;;4.37;;
38397;SDS011;24179;52.094;4.408;2022-08-01T05:31:11;8.80;;;4.33;;
38397;SDS011;24179;52.094;4.408;2022-08-01T05:34:11;8.40;;;4.50;;
38397;SDS011;24179;52.094;4.408;2022-08-01T05:37:12;9.90;;;5.37;;
38397;SDS011;24179;52.094;4.408;2022-08-01T05:40:12;12.73;;;6.23;;
38397;SDS011;24179;52.094;4.408;2022-08-01T05:43:13;13.23;;;6.10;;
38397;SDS011;24179;52.094;4.408;2022-08-01T05:46:13;10.63;;;5.60;;
38397;SDS011;24179;52.094;4.408;2022-08-01T05:49:14;8.93;;;6.10;;
38397;SDS011;24179;52.094;4.408;2022-08-01T05:52:15;12.87;;;5.10;;
38397;SDS011;24179;52.094;4.408;2022-08-01T05:55:15;8.57;;;4.27;;
38397;SDS011;24179;52.094;4.408;2022-08-01T05:58:16;9.87;;;4.90;;
38397;SDS011;24179;52.094;4.408;2022-08-01T06:01:17;11.17;;;4.90;;
38397;SDS011;24179;52.094;4.408;2022-08-01T06:07:18;9.43;;;4.50;;
38397;SDS011;24179;52.094;4.408;2022-08-01T06:10:19;10.73;;;5.33;;
38397;SDS011;24179;52.094;4.408;2022-08-01T06:13:20;8.32;;;5.18;;
38397;SDS011;24179;52.094;4.408;2022-08-01T06:16:22;10.17;;;5.37;;
38397;SDS011;24179;52.094;4.408;2022-08-01T06:22:23;11.10;;;5.57;;
38397;SDS011;24179;52.094;4.408;2022-08-01T06:25:23;12.37;;;6.43;;
38397;SDS011;24179;52.094;4.408;2022-08-01T06:28:24;16.90;;;7.73;;
38397;SDS011;24179;52.094;4.408;2022-08-01T06:31:25;12.30;;;7.23;;
38397;SDS011;24179;52.094;4.408;2022-08-01T06:34:25;14.27;;;7.77;;
38397;SDS011;24179;52.094;4.408;2022-08-01T06:37:32;22.37;;;8.40;;
38397;SDS011;24179;52.094;4.408;2022-08-01T06:40:33;17.95;;;9.20;;
38397;SDS011;24179;52.094;4.408;2022-08-01T06:43:33;22.53;;;10.27;;
38397;SDS011;24179;52.094;4.408;2022-08-01T06:46:34;20.10;;;12.07;;
38397;SDS011;24179;52.094;4.408;2022-08-01T06:49:35;29.58;;;13.30;;
38397;SDS011;24179;52.094;4.408;2022-08-01T06:52:35;20.63;;;10.53;;
38397;SDS011;24179;52.094;4.408;2022-08-01T06:55:36;25.00;;;10.70;;
38397;SDS011;24179;52.094;4.408;2022-08-01T06:58:37;21.30;;;9.43;;
38397;SDS011;24179;52.094;4.408;2022-08-01T07:01:37;19.53;;;9.87;;
38397;SDS011;24179;52.094;4.408;2022-08-01T07:04:38;19.83;;;10.00;;
38397;SDS011;24179;52.094;4.408;2022-08-01T07:07:38;20.47;;;9.33;;
38397;SDS011;24179;52.094;4.408;2022-08-01T07:10:39;26.83;;;9.97;;
38397;SDS011;24179;52.094;4.408;2022-08-01T07:13:39;23.13;;;8.27;;
38397;SDS011;24179;52.094;4.408;2022-08-01T07:16:40;21.35;;;7.05;;
38397;SDS011;24179;52.094;4.408;2022-08-01T07:19:41;17.73;;;7.30;;
38397;SDS011;24179;52.094;4.408;2022-08-01T07:22:42;17.93;;;6.83;;
38397;SDS011;24179;52.094;4.408;2022-08-01T07:25:42;12.73;;;5.32;;
38397;SDS011;24179;52.094;4.408;2022-08-01T07:28:43;12.57;;;6.10;;
38397;SDS011;24179;52.094;4.408;2022-08-01T07:31:44;17.13;;;5.27;;
38397;SDS011;24179;52.094;4.408;2022-08-01T07:34:44;15.03;;;4.87;;
38397;SDS011;24179;52.094;4.408;2022-08-01T07:37:45;18.20;;;5.50;;
38397;SDS011;24179;52.094;4.408;2022-08-01T07:40:45;16.87;;;5.27;;
38397;SDS011;24179;52.094;4.408;2022-08-01T07:43:46;14.97;;;5.00;;
38397;SDS011;24179;52.094;4.408;2022-08-01T07:46:48;12.80;;;4.70;;
38397;SDS011;24179;52.094;4.408;2022-08-01T07:49:49;15.00;;;4.07;;
38397;SDS011;24179;52.094;4.408;2022-08-01T07:52:50;11.50;;;4.13;;
38397;SDS011;24179;52.094;4.408;2022-08-01T07:55:50;11.02;;;4.22;;
38397;SDS011;24179;52.094;4.408;2022-08-01T07:58:51;10.98;;;4.57;;
38397;SDS011;24179;52.094;4.408;2022-08-01T08:01:52;15.77;;;4.75;;
38397;SDS011;24179;52.094;4.408;2022-08-01T08:04:52;9.40;;;3.47;;
38397;SDS011;24179;52.094;4.408;2022-08-01T08:07:53;11.98;;;3.47;;
38397;SDS011;24179;52.094;4.408;2022-08-01T08:13:54;9.87;;;3.73;;
38397;SDS011;24179;52.094;4.408;2022-08-01T08:19:55;10.50;;;3.33;;
38397;SDS011;24179;52.094;4.408;2022-08-01T08:25:58;9.85;;;4.03;;
38397;SDS011;24179;52.094;4.408;2022-08-01T08:28:59;10.68;;;3.65;;
38397;SDS011;24179;52.094;4.408;2022-08-01T08:32:00;9.07;;;3.13;;
38397;SDS011;24179;52.094;4.408;2022-08-01T08:35:01;9.30;;;3.20;;
38397;SDS011;24179;52.094;4.408;2022-08-01T08:38:02;11.45;;;3.38;;
38397;SDS011;24179;52.094;4.408;2022-08-01T08:41:02;9.45;;;3.38;;
38397;SDS011;24179;52.094;4.408;2022-08-01T08:44:06;9.90;;;3.20;;
38397;SDS011;24179;52.094;4.408;2022-08-01T08:47:08;13.45;;;3.65;;
38397;SDS011;24179;52.094;4.408;2022-08-01T08:50:12;10.80;;;3.40;;
38397;SDS011;24179;52.094;4.408;2022-08-01T08:53:13;11.57;;;3.15;;
38397;SDS011;24179;52.094;4.408;2022-08-01T08:56:14;7.90;;;2.70;;
38397;SDS011;24179;52.094;4.408;2022-08-01T08:59:15;13.73;;;3.65;;
38397;SDS011;24179;52.094;4.408;2022-08-01T09:02:16;12.07;;;3.20;;
38397;SDS011;24179;52.094;4.408;2022-08-01T09:05:17;10.73;;;3.05;;
38397;SDS011;24179;52.094;4.408;2022-08-01T09:08:25;13.00;;;3.20;;
38397;SDS011;24179;52.094;4.408;2022-08-01T09:11:26;8.02;;;2.72;;
38397;SDS011;24179;52.094;4.408;2022-08-01T09:14:27;12.07;;;2.70;;
38397;SDS011;24179;52.094;4.408;2022-08-01T09:17:38;7.82;;;2.63;;
38397;SDS011;24179;52.094;4.408;2022-08-01T09:20:40;9.67;;;2.60;;
38397;SDS011;24179;52.094;4.408;2022-08-01T09:23:46;9.95;;;2.50;;
38397;SDS011;24179;52.094;4.408;2022-08-01T10:09:02;7.50;;;3.33;;
38397;SDS011;24179;52.094;4.408;2022-08-01T10:12:13;11.20;;;3.58;;
38397;SDS011;24179;52.094;4.408;2022-08-01T10:15:24;6.90;;;2.80;;
38397;SDS011;24179;52.094;4.408;2022-08-01T10:18:31;10.30;;;4.15;;
38397;SDS011;24179;52.094;4.408;2022-08-01T10:21:33;9.98;;;3.20;;
38397;SDS011;24179;52.094;4.408;2022-08-01T10:24:51;6.47;;;2.55;;
38397;SDS011;24179;52.094;4.408;2022-08-01T10:31:09;7.85;;;2.30;;
38397;SDS011;24179;52.094;4.408;2022-08-01T10:34:11;6.28;;;2.75;;
38397;SDS011;24179;52.094;4.408;2022-08-01T10:37:15;6.80;;;2.40;;
38397;SDS011;24179;52.094;4.408;2022-08-01T10:40:17;8.85;;;2.60;;
38397;SDS011;24179;52.094;4.408;2022-08-01T10:46:19;11.52;;;3.05;;
38397;SDS011;24179;52.094;4.408;2022-08-01T10:52:21;14.93;;;3.25;;
38397;SDS011;24179;52.094;4.408;2022-08-01T10:55:24;12.07;;;3.20;;
38397;SDS011;24179;52.094;4.408;2022-08-01T11:01:28;10.27;;;3.22;;
38397;SDS011;24179;52.094;4.408;2022-08-01T11:04:50;11.85;;;3.47;;
38397;SDS011;24179;52.094;4.408;2022-08-01T11:07:54;11.75;;;2.78;;
38397;SDS011;24179;52.094;4.408;2022-08-01T11:14:03;12.02;;;3.08;;
38397;SDS011;24179;52.094;4.408;2022-08-01T11:17:40;11.95;;;3.17;;
38397;SDS011;24179;52.094;4.408;2022-08-01T11:20:43;12.82;;;2.80;;
38397;SDS011;24179;52.094;4.408;2022-08-01T11:23:57;8.65;;;2.70;;
38397;SDS011;24179;52.094;4.408;2022-08-01T11:36:42;8.73;;;2.53;;
38397;SDS011;24179;52.094;4.408;2022-08-01T11:39:42;7.03;;;2.10;;
38397;SDS011;24179;52.094;4.408;2022-08-01T11:42:43;7.90;;;2.72;;
38397;SDS011;24179;52.094;4.408;2022-08-01T11:45:50;8.55;;;2.35;;
38397;SDS011;24179;52.094;4.408;2022-08-01T11:52:27;8.15;;;2.20;;
38397;SDS011;24179;52.094;4.408;2022-08-01T11:55:30;10.98;;;3.10;;
38397;SDS011;24179;52.094;4.408;2022-08-01T11:58:31;8.70;;;2.40;;
38397;SDS011;24179;52.094;4.408;2022-08-01T12:01:33;8.52;;;2.63;;
38397;SDS011;24179;52.094;4.408;2022-08-01T12:07:56;8.85;;;2.08;;
38397;SDS011;24179;52.094;4.408;2022-08-01T12:10:58;11.70;;;3.15;;
38397;SDS011;24179;52.094;4.408;2022-08-01T12:13:59;8.70;;;3.25;;
38397;SDS011;24179;52.094;4.408;2022-08-01T12:17:01;9.23;;;2.63;;
38397;SDS011;24179;52.094;4.408;2022-08-01T12:23:08;10.15;;;2.78;;
38397;SDS011;24179;52.094;4.408;2022-08-01T12:26:10;7.97;;;2.33;;
38397;SDS011;24179;52.094;4.408;2022-08-01T12:29:29;8.45;;;2.28;;
38397;SDS011;24179;52.094;4.408;2022-08-01T12:32:42;8.30;;;2.35;;
38397;SDS011;24179;52.094;4.408;2022-08-01T12:35:45;9.32;;;2.13;;
38397;SDS011;24179;52.094;4.408;2022-08-01T12:38:51;8.25;;;2.00;;
38397;SDS011;24179;52.094;4.408;2022-08-01T12:41:53;9.65;;;2.75;;
38397;SDS011;24179;52.094;4.408;2022-08-01T12:47:54;6.85;;;2.42;;
38397;SDS011;24179;52.094;4.408;2022-08-01T12:50:58;8.55;;;2.55;;
38397;SDS011;24179;52.094;4.408;2022-08-01T12:54:02;10.88;;;2.58;;
38397;SDS011;24179;52.094;4.408;2022-08-01T12:57:04;8.45;;;2.50;;
38397;SDS011;24179;52.094;4.408;2022-08-01T13:00:09;9.57;;;2.28;;
38397;SDS011;24179;52.094;4.408;2022-08-01T13:03:13;7.78;;;2.15;;
38397;SDS011;24179;52.094;4.408;2022-08-01T13:06:15;9.38;;;2.25;;
38397;SDS011;24179;52.094;4.408;2022-08-01T13:09:15;8.20;;;2.20;;
38397;SDS011;24179;52.094;4.408;2022-08-01T13:12:16;4.82;;;1.40;;
38397;SDS011;24179;52.094;4.408;2022-08-01T13:15:21;7.25;;;1.75;;
38397;SDS011;24179;52.094;4.408;2022-08-01T13:21:29;4.45;;;2.03;;
38397;SDS011;24179;52.094;4.408;2022-08-01T13:24:32;5.18;;;1.73;;
38397;SDS011;24179;52.094;4.408;2022-08-01T13:27:32;9.18;;;2.58;;
38397;SDS011;24179;52.094;4.408;2022-08-01T13:30:33;4.35;;;1.60;;
38397;SDS011;24179;52.094;4.408;2022-08-01T13:33:45;4.95;;;1.55;;
38397;SDS011;24179;52.094;4.408;2022-08-01T13:36:46;3.67;;;1.70;;
38397;SDS011;24179;52.094;4.408;2022-08-01T13:39:47;4.50;;;1.30;;
38397;SDS011;24179;52.094;4.408;2022-08-01T13:42:47;4.00;;;1.90;;
38397;SDS011;24179;52.094;4.408;2022-08-01T13:45:49;7.68;;;2.10;;
38397;SDS011;24179;52.094;4.408;2022-08-01T13:48:49;6.88;;;1.70;;
38397;SDS011;24179;52.094;4.408;2022-08-01T13:51:50;7.57;;;1.85;;
38397;SDS011;24179;52.094;4.408;2022-08-01T13:54:51;8.85;;;2.35;;
38397;SDS011;24179;52.094;4.408;2022-08-01T13:57:51;5.97;;;1.60;;
38397;SDS011;24179;52.094;4.408;2022-08-01T14:00:52;4.75;;;1.70;;
38397;SDS011;24179;52.094;4.408;2022-08-01T14:03:52;5.03;;;1.70;;
38397;SDS011;24179;52.094;4.408;2022-08-01T14:06:53;4.00;;;1.65;;
38397;SDS011;24179;52.094;4.408;2022-08-01T14:09:53;3.88;;;1.70;;
38397;SDS011;24179;52.094;4.408;2022-08-01T14:12:57;5.63;;;1.65;;
38397;SDS011;24179;52.094;4.408;2022-08-01T14:15:59;4.35;;;1.60;;
38397;SDS011;24179;52.094;4.408;2022-08-01T14:18:59;5.05;;;1.75;;
38397;SDS011;24179;52.094;4.408;2022-08-01T14:22:01;5.05;;;1.80;;
38397;SDS011;24179;52.094;4.408;2022-08-01T14:25:02;2.88;;;1.52;;
38397;SDS011;24179;52.094;4.408;2022-08-01T14:43:09;5.28;;;1.90;;
38397;SDS011;24179;52.094;4.408;2022-08-01T14:46:09;5.55;;;1.88;;
38397;SDS011;24179;52.094;4.408;2022-08-01T14:49:11;4.72;;;1.35;;
38397;SDS011;24179;52.094;4.408;2022-08-01T14:52:11;4.22;;;1.42;;
38397;SDS011;24179;52.094;4.408;2022-08-01T14:55:12;5.55;;;1.85;;
38397;SDS011;24179;52.094;4.408;2022-08-01T14:58:13;5.97;;;1.85;;
38397;SDS011;24179;52.094;4.408;2022-08-01T15:01:14;4.72;;;2.00;;
38397;SDS011;24179;52.094;4.408;2022-08-01T15:04:15;5.53;;;1.60;;
38397;SDS011;24179;52.094;4.408;2022-08-01T15:07:17;3.42;;;1.63;;
38397;SDS011;24179;52.094;4.408;2022-08-01T15:10:18;4.32;;;1.67;;
38397;SDS011;24179;52.094;4.408;2022-08-01T15:13:19;3.70;;;1.80;;
38397;SDS011;24179;52.094;4.408;2022-08-01T15:16:20;5.47;;;2.00;;
38397;SDS011;24179;52.094;4.408;2022-08-01T15:19:20;4.68;;;1.52;;
38397;SDS011;24179;52.094;4.408;2022-08-01T15:22:21;2.58;;;1.48;;
38397;SDS011;24179;52.094;4.408;2022-08-01T15:25:23;4.70;;;1.65;;
38397;SDS011;24179;52.094;4.408;2022-08-01T15:28:23;5.32;;;1.45;;
38397;SDS011;24179;52.094;4.408;2022-08-01T15:31:24;5.57;;;1.73;;
38397;SDS011;24179;52.094;4.408;2022-08-01T15:34:25;3.85;;;1.77;;
38397;SDS011;24179;52.094;4.408;2022-08-01T15:37:25;5.18;;;1.60;;
38397;SDS011;24179;52.094;4.408;2022-08-01T15:40:28;5.25;;;1.75;;
38397;SDS011;24179;52.094;4.408;2022-08-01T15:43:32;5.15;;;1.98;;
38397;SDS011;24179;52.094;4.408;2022-08-01T15:46:33;4.18;;;1.70;;
38397;SDS011;24179;52.094;4.408;2022-08-01T15:49:36;4.38;;;1.55;;
38397;SDS011;24179;52.094;4.408;2022-08-01T15:52:38;5.10;;;1.85;;
38397;SDS011;24179;52.094;4.408;2022-08-01T15:55:41;4.18;;;1.98;;
38397;SDS011;24179;52.094;4.408;2022-08-01T15:58:45;3.53;;;1.50;;
38397;SDS011;24179;52.094;4.408;2022-08-01T16:01:45;3.80;;;1.42;;
38397;SDS011;24179;52.094;4.408;2022-08-01T16:04:49;2.88;;;1.45;;
38397;SDS011;24179;52.094;4.408;2022-08-01T16:07:50;6.32;;;1.80;;
38397;SDS011;24179;52.094;4.408;2022-08-01T16:10:50;3.65;;;1.70;;
38397;SDS011;24179;52.094;4.408;2022-08-01T16:13:51;2.60;;;1.77;;
38397;SDS011;24179;52.094;4.408;2022-08-01T16:16:53;2.03;;;1.30;;
38397;SDS011;24179;52.094;4.408;2022-08-01T16:19:56;3.83;;;1.23;;
38397;SDS011;24179;52.094;4.408;2022-08-01T16:23:00;3.70;;;1.80;;
38397;SDS011;24179;52.094;4.408;2022-08-01T16:26:01;10.00;;;1.38;;
38397;SDS011;24179;52.094;4.408;2022-08-01T16:29:02;2.85;;;1.30;;
38397;SDS011;24179;52.094;4.408;2022-08-01T16:32:03;2.88;;;1.35;;
38397;SDS011;24179;52.094;4.408;2022-08-01T16:35:05;4.47;;;1.13;;
38397;SDS011;24179;52.094;4.408;2022-08-01T16:38:06;2.65;;;1.10;;
38397;SDS011;24179;52.094;4.408;2022-08-01T16:41:06;4.25;;;1.10;;
38397;SDS011;24179;52.094;4.408;2022-08-01T16:44:07;3.53;;;1.27;;
38397;SDS011;24179;52.094;4.408;2022-08-01T16:47:08;4.72;;;1.40;;
38397;SDS011;24179;52.094;4.408;2022-08-01T16:50:08;4.18;;;1.20;;
38397;SDS011;24179;52.094;4.408;2022-08-01T16:53:09;3.95;;;1.17;;
38397;SDS011;24179;52.094;4.408;2022-08-01T16:56:10;2.40;;;1.05;;
38397;SDS011;24179;52.094;4.408;2022-08-01T16:59:10;2.80;;;1.10;;
38397;SDS011;24179;52.094;4.408;2022-08-01T17:02:11;3.83;;;1.30;;
38397;SDS011;24179;52.094;4.408;2022-08-01T17:05:11;3.40;;;1.50;;
38397;SDS011;24179;52.094;4.408;2022-08-01T17:11:13;4.57;;;1.47;;
38397;SDS011;24179;52.094;4.408;2022-08-01T17:14:16;2.65;;;1.25;;
38397;SDS011;24179;52.094;4.408;2022-08-01T17:17:16;3.60;;;1.27;;
38397;SDS011;24179;52.094;4.408;2022-08-01T17:20:17;1.90;;;1.30;;
38397;SDS011;24179;52.094;4.408;2022-08-01T17:23:19;2.92;;;1.10;;
38397;SDS011;24179;52.094;4.408;2022-08-01T17:26:20;4.17;;;1.20;;
38397;SDS011;24179;52.094;4.408;2022-08-01T17:29:21;3.25;;;1.20;;
38397;SDS011;24179;52.094;4.408;2022-08-01T17:32:21;4.97;;;1.10;;
38397;SDS011;24179;52.094;4.408;2022-08-01T17:35:22;3.03;;;1.20;;
38397;SDS011;24179;52.094;4.408;2022-08-01T17:38:22;5.43;;;1.30;;
38397;SDS011;24179;52.094;4.408;2022-08-01T17:41:23;3.70;;;1.43;;
38397;SDS011;24179;52.094;4.408;2022-08-01T17:44:24;2.88;;;1.40;;
38397;SDS011;24179;52.094;4.408;2022-08-01T17:47:27;3.55;;;1.55;;
38397;SDS011;24179;52.094;4.408;2022-08-01T17:50:28;3.13;;;1.60;;
38397;SDS011;24179;52.094;4.408;2022-08-01T17:53:28;4.83;;;2.13;;
38397;SDS011;24179;52.094;4.408;2022-08-01T17:56:29;6.63;;;1.83;;
38397;SDS011;24179;52.094;4.408;2022-08-01T17:59:30;3.40;;;1.90;;
38397;SDS011;24179;52.094;4.408;2022-08-01T18:02:30;4.60;;;1.47;;
38397;SDS011;24179;52.094;4.408;2022-08-01T18:05:31;6.50;;;1.80;;
38397;SDS011;24179;52.094;4.408;2022-08-01T18:08:32;4.68;;;1.30;;
38397;SDS011;24179;52.094;4.408;2022-08-01T18:11:33;4.17;;;1.83;;
38397;SDS011;24179;52.094;4.408;2022-08-01T18:14:33;7.30;;;1.50;;
38397;SDS011;24179;52.094;4.408;2022-08-01T18:17:39;7.83;;;1.73;;
38397;SDS011;24179;52.094;4.408;2022-08-01T18:20:43;3.35;;;1.30;;
38397;SDS011;24179;52.094;4.408;2022-08-01T18:23:44;4.35;;;1.30;;
38397;SDS011;24179;52.094;4.408;2022-08-01T18:26:45;2.40;;;1.58;;
38397;SDS011;24179;52.094;4.408;2022-08-01T18:29:46;4.30;;;1.50;;
38397;SDS011;24179;52.094;4.408;2022-08-01T18:32:49;5.32;;;1.27;;
38397;SDS011;24179;52.094;4.408;2022-08-01T18:35:50;4.20;;;1.10;;
38397;SDS011;24179;52.094;4.408;2022-08-01T18:38:50;7.17;;;1.30;;
38397;SDS011;24179;52.094;4.408;2022-08-01T18:41:51;3.27;;;1.20;;
38397;SDS011;24179;52.094;4.408;2022-08-01T18:44:51;2.67;;;1.50;;
38397;SDS011;24179;52.094;4.408;2022-08-01T18:47:52;3.77;;;1.30;;
38397;SDS011;24179;52.094;4.408;2022-08-01T18:50:54;2.28;;;1.10;;
38397;SDS011;24179;52.094;4.408;2022-08-01T18:53:59;3.10;;;1.42;;
38397;SDS011;24179;52.094;4.408;2022-08-01T18:57:02;6.93;;;1.40;;
38397;SDS011;24179;52.094;4.408;2022-08-01T19:00:03;2.45;;;1.35;;
38397;SDS011;24179;52.094;4.408;2022-08-01T19:03:04;1.92;;;1.30;;
38397;SDS011;24179;52.094;4.408;2022-08-01T19:06:05;2.77;;;1.70;;
38397;SDS011;24179;52.094;4.408;2022-08-01T19:09:06;2.72;;;1.35;;
38397;SDS011;24179;52.094;4.408;2022-08-01T19:12:07;6.85;;;1.70;;
38397;SDS011;24179;52.094;4.408;2022-08-01T19:15:08;3.30;;;1.47;;
38397;SDS011;24179;52.094;4.408;2022-08-01T19:18:09;3.50;;;1.35;;
38397;SDS011;24179;52.094;4.408;2022-08-01T19:21:10;4.73;;;1.67;;
38397;SDS011;24179;52.094;4.408;2022-08-01T19:24:10;4.93;;;1.70;;
38397;SDS011;24179;52.094;4.408;2022-08-01T19:27:18;3.05;;;1.70;;
38397;SDS011;24179;52.094;4.408;2022-08-01T19:30:26;3.70;;;1.40;;
38397;SDS011;24179;52.094;4.408;2022-08-01T19:33:27;5.40;;;1.40;;
38397;SDS011;24179;52.094;4.408;2022-08-01T19:36:31;4.45;;;1.73;;
38397;SDS011;24179;52.094;4.408;2022-08-01T19:39:32;4.75;;;1.55;;
38397;SDS011;24179;52.094;4.408;2022-08-01T19:42:35;4.23;;;1.80;;
38397;SDS011;24179;52.094;4.408;2022-08-01T19:45:40;6.75;;;1.50;;
38397;SDS011;24179;52.094;4.408;2022-08-01T19:48:43;4.63;;;1.40;;
38397;SDS011;24179;52.094;4.408;2022-08-01T19:51:50;7.15;;;1.67;;
38397;SDS011;24179;52.094;4.408;2022-08-01T19:54:56;3.58;;;1.38;;
38397;SDS011;24179;52.094;4.408;2022-08-01T19:57:57;5.88;;;1.70;;
38397;SDS011;24179;52.094;4.408;2022-08-01T20:01:00;6.97;;;1.90;;
38397;SDS011;24179;52.094;4.408;2022-08-01T20:04:01;4.63;;;1.90;;
38397;SDS011;24179;52.094;4.408;2022-08-01T20:07:03;2.75;;;1.65;;
38397;SDS011;24179;52.094;4.408;2022-08-01T20:10:04;3.93;;;1.70;;
38397;SDS011;24179;52.094;4.408;2022-08-01T20:13:05;3.55;;;1.60;;
38397;SDS011;24179;52.094;4.408;2022-08-01T20:16:09;3.15;;;1.63;;
38397;SDS011;24179;52.094;4.408;2022-08-01T20:19:10;5.00;;;1.80;;
38397;SDS011;24179;52.094;4.408;2022-08-01T20:25:13;6.95;;;2.20;;
38397;SDS011;24179;52.094;4.408;2022-08-01T20:28:20;5.60;;;2.28;;
38397;SDS011;24179;52.094;4.408;2022-08-01T20:31:29;6.25;;;2.30;;